createdAt,value
2022-12-28T00:01:29.330Z,101588.97
2022-12-28T00:03:56.180Z,101595.84
2022-12-28T00:06:23.995Z,101591.44
2022-12-28T00:08:53.711Z,101593.19
2022-12-28T00:11:30.473Z,101584.28
2022-12-28T00:14:00.155Z,101580.69
2022-12-28T00:16:34.793Z,101575.41
2022-12-28T00:19:03.276Z,101568.28
2022-12-28T00:21:29.843Z,101564.78
2022-12-28T00:23:58.547Z,101569.16
2022-12-28T00:26:27.004Z,101564.69
2022-12-28T00:28:56.858Z,101546.97
2022-12-28T00:31:28.346Z,101546.09
2022-12-28T00:33:54.772Z,101550.50
2022-12-28T00:36:21.132Z,101545.09
2022-12-28T00:38:47.496Z,101522.88
2022-12-28T00:41:13.901Z,101508.81
2022-12-28T00:43:40.405Z,101499.00
2022-12-28T00:46:06.987Z,101486.66
2022-12-28T00:48:33.451Z,101486.56
2022-12-28T00:51:26.295Z,101475.91
2022-12-28T00:53:52.671Z,101490.06
2022-12-28T00:56:22.014Z,101470.47
2022-12-28T00:58:48.819Z,101470.47
2022-12-28T01:01:19.709Z,101463.41
2022-12-28T01:03:46.659Z,101465.13
2022-12-28T01:06:15.036Z,101465.09
2022-12-28T01:08:42.103Z,101456.25
2022-12-28T01:11:10.076Z,101456.25
2022-12-28T01:13:37.201Z,101444.75
2022-12-28T01:16:15.178Z,101428.69
2022-12-28T01:18:42.615Z,101434.00
2022-12-28T01:21:11.281Z,101431.31
2022-12-28T01:23:37.755Z,101426.97
2022-12-28T01:26:04.730Z,101426.97
2022-12-28T01:28:31.189Z,101430.38
2022-12-28T01:31:02.495Z,101410.22
2022-12-28T01:33:28.905Z,101407.50
2022-12-28T01:35:55.302Z,101431.31
2022-12-28T01:38:21.680Z,101424.25
2022-12-28T01:40:48.105Z,101419.78
2022-12-28T01:43:15.407Z,101426.09
2022-12-28T01:45:56.509Z,101417.16
2022-12-28T01:48:25.437Z,101424.25
2022-12-28T01:50:53.055Z,101414.47
2022-12-28T01:53:20.938Z,101423.31
2022-12-28T01:55:48.831Z,101410.81
2022-12-28T01:58:19.536Z,101401.19
2022-12-28T02:00:46.029Z,101404.56
2022-12-28T02:03:18.848Z,101386.13
2022-12-28T02:05:49.220Z,101386.78
2022-12-28T02:08:43.048Z,101401.06
2022-12-28T02:11:13.666Z,101381.50
2022-12-28T02:13:42.641Z,101382.41
2022-12-28T02:16:11.034Z,101370.69
2022-12-28T02:18:38.250Z,101360.19
2022-12-28T02:21:26.277Z,101368.94
2022-12-28T02:24:08.783Z,101357.44
2022-12-28T02:26:38.182Z,101360.03
2022-12-28T02:29:22.239Z,101354.59
2022-12-28T02:32:14.753Z,101342.28
2022-12-28T02:35:21.581Z,101349.38
2022-12-28T02:37:53.979Z,101323.72
2022-12-28T02:40:25.647Z,101320.88
2022-12-28T02:42:54.568Z,101320.84
2022-12-28T02:46:00.370Z,101317.38
2022-12-28T02:48:46.034Z,101308.50
2022-12-28T02:51:12.440Z,101288.84
2022-12-28T02:53:47.891Z,101296.78
2022-12-28T02:56:34.856Z,101285.19
2022-12-28T02:59:10.516Z,101291.97
2022-12-28T03:02:02.395Z,101281.94
2022-12-28T03:04:59.849Z,101281.84
2022-12-28T03:07:55.005Z,101278.19
2022-12-28T03:10:39.240Z,101280.78
2022-12-28T03:13:32.350Z,101266.63
2022-12-28T03:16:04.767Z,101271.84
2022-12-28T03:18:52.806Z,101269.19
2022-12-28T03:21:39.165Z,101266.47
2022-12-28T03:24:26.433Z,101256.78
2022-12-28T03:27:12.978Z,101272.69
2022-12-28T03:30:05.492Z,101251.47
2022-12-28T03:32:32.140Z,101252.44
2022-12-28T03:34:58.611Z,101263.75
2022-12-28T03:37:32.281Z,101253.03
2022-12-28T03:40:09.112Z,101248.69
2022-12-28T03:43:01.880Z,101251.22
2022-12-28T03:45:47.479Z,101232.63
2022-12-28T03:48:15.858Z,101230.97
2022-12-28T03:50:46.087Z,101218.50
2022-12-28T03:53:12.887Z,101224.56
2022-12-28T03:55:40.491Z,101224.56
2022-12-28T03:58:06.911Z,101221.09
2022-12-28T04:00:33.763Z,101204.22
2022-12-28T04:03:00.338Z,101211.28
2022-12-28T04:05:26.819Z,101197.06
2022-12-28T04:07:53.468Z,101205.09
2022-12-28T04:10:19.949Z,101192.47
2022-12-28T04:12:46.348Z,101196.94
2022-12-28T04:15:12.791Z,101185.38
2022-12-28T04:17:39.259Z,101193.44
2022-12-28T04:20:06.472Z,101199.59
2022-12-28T04:22:32.905Z,101194.31
2022-12-28T04:24:59.307Z,101192.50
2022-12-28T04:27:25.711Z,101193.31
2022-12-28T04:29:52.086Z,101194.31
2022-12-28T04:32:18.524Z,101185.38
2022-12-28T04:34:48.644Z,101189.81
2022-12-28T04:37:15.649Z,101194.19
2022-12-28T04:39:55.980Z,101183.53
2022-12-28T04:42:26.556Z,101186.28
2022-12-28T04:44:53.033Z,101185.25
2022-12-28T04:47:19.454Z,101185.22
2022-12-28T04:49:45.932Z,101164.03
2022-12-28T04:52:12.498Z,101176.34
2022-12-28T04:54:39.104Z,101173.69
2022-12-28T04:57:06.683Z,101173.81
2022-12-28T04:59:33.085Z,101164.78
2022-12-28T05:01:59.536Z,101155.94
2022-12-28T05:04:26.050Z,101171.03
2022-12-28T05:06:52.408Z,101172.63
2022-12-28T05:09:19.514Z,101155.81
2022-12-28T05:11:46.061Z,101156.75
2022-12-28T05:14:12.452Z,101155.75
2022-12-28T05:16:38.941Z,101157.59
2022-12-28T05:19:05.419Z,101152.28
2022-12-28T05:21:32.040Z,101165.56
2022-12-28T05:23:58.647Z,101155.75
2022-12-28T05:26:28.786Z,101156.50
2022-12-28T05:28:56.118Z,101162.75
2022-12-28T05:31:23.689Z,101167.16
2022-12-28T05:33:50.311Z,101153.88
2022-12-28T05:36:19.285Z,101168.91
2022-12-28T05:38:46.251Z,101158.31
2022-12-28T05:41:14.209Z,101152.03
2022-12-28T05:43:41.414Z,101148.44
2022-12-28T05:46:10.937Z,101145.72
2022-12-28T05:48:39.460Z,101142.34
2022-12-28T05:51:18.101Z,101156.38
2022-12-28T05:53:45.116Z,101148.63
2022-12-28T05:56:18.604Z,101144.84
2022-12-28T05:58:47.217Z,101142.09
2022-12-28T06:01:16.381Z,101150.03
2022-12-28T06:03:43.845Z,101124.56
2022-12-28T06:06:17.990Z,101143.97
2022-12-28T06:08:46.390Z,101131.44
2022-12-28T06:11:15.734Z,101132.38
2022-12-28T06:13:42.832Z,101140.31
2022-12-28T06:16:12.496Z,101136.66
2022-12-28T06:18:39.289Z,101130.50
2022-12-28T06:21:11.847Z,101140.25
2022-12-28T06:23:38.843Z,101134.84
2022-12-28T06:26:07.183Z,101142.00
2022-12-28T06:28:36.277Z,101134.94
2022-12-28T06:31:08.533Z,101126.81
2022-12-28T06:33:35.147Z,101139.19
2022-12-28T06:36:02.110Z,101131.19
2022-12-28T06:38:32.403Z,101126.72
2022-12-28T06:41:14.982Z,101114.47
2022-12-28T06:43:43.157Z,101127.72
2022-12-28T06:46:10.379Z,101115.19
2022-12-28T06:48:37.580Z,101119.53
2022-12-28T06:51:11.202Z,101115.00
2022-12-28T06:53:38.184Z,101108.75
2022-12-28T06:56:06.392Z,101107.84
2022-12-28T06:58:33.547Z,101110.41
2022-12-28T07:01:14.739Z,101109.59
2022-12-28T07:03:42.397Z,101103.47
2022-12-28T07:06:09.287Z,101101.44
2022-12-28T07:08:36.218Z,101112.06
2022-12-28T07:11:14.192Z,101107.50
2022-12-28T07:13:41.081Z,101112.06
2022-12-28T07:16:11.236Z,101095.00
2022-12-28T07:18:38.300Z,101104.78
2022-12-28T07:21:11.476Z,101108.31
2022-12-28T07:23:37.882Z,101116.06
2022-12-28T07:26:15.897Z,101108.13
2022-12-28T07:28:44.924Z,101100.84
2022-12-28T07:31:14.769Z,101103.38
2022-12-28T07:33:41.580Z,101104.25
2022-12-28T07:36:10.253Z,101101.66
2022-12-28T07:38:36.938Z,101099.78
2022-12-28T07:41:12.459Z,101100.84
2022-12-28T07:43:38.953Z,101093.56
2022-12-28T07:46:09.435Z,101104.97
2022-12-28T07:48:36.981Z,101111.94
2022-12-28T07:51:19.786Z,101095.94
2022-12-28T07:53:50.120Z,101103.94
2022-12-28T07:56:17.355Z,101096.66
2022-12-28T08:01:16.165Z,101104.47
2022-12-28T08:03:44.310Z,101111.47
2022-12-28T08:06:18.679Z,101107.81
2022-12-28T08:08:47.416Z,101104.19
2022-12-28T08:11:17.077Z,101107.69
2022-12-28T08:13:45.400Z,101109.41
2022-12-28T08:16:14.090Z,101096.84
2022-12-28T08:18:41.722Z,101103.06
2022-12-28T08:21:12.130Z,101113.59
2022-12-28T08:23:38.583Z,101110.91
2022-12-28T08:26:07.085Z,101103.00
2022-12-28T08:28:34.127Z,101104.53
2022-12-28T08:31:14.325Z,101108.84
2022-12-28T08:33:41.007Z,101105.41
2022-12-28T08:36:09.057Z,101117.66
2022-12-28T08:38:39.975Z,101094.44
2022-12-28T08:41:08.841Z,101098.97
2022-12-28T08:43:35.306Z,101097.03
2022-12-28T08:46:05.979Z,101111.19
2022-12-28T08:48:33.843Z,101102.25
2022-12-28T08:51:12.715Z,101110.97
2022-12-28T08:53:40.423Z,101102.25
2022-12-28T08:56:27.749Z,101110.94
2022-12-28T08:58:55.205Z,101110.03
2022-12-28T09:01:28.255Z,101109.91
2022-12-28T09:03:56.395Z,101094.78
2022-12-28T09:06:26.286Z,101106.19
2022-12-28T09:09:10.558Z,101097.22
2022-12-28T09:11:38.579Z,101095.38
2022-12-28T09:14:07.758Z,101094.34
2022-12-28T09:16:35.593Z,101086.28
2022-12-28T09:19:03.657Z,101096.69
2022-12-28T09:21:32.958Z,101091.34
2022-12-28T09:23:59.550Z,101097.31
2022-12-28T09:26:32.240Z,101091.84
2022-12-28T09:29:04.177Z,101099.72
2022-12-28T09:31:32.703Z,101087.44
2022-12-28T09:36:48.722Z,101105.06
2022-12-28T09:39:18.057Z,101099.44
2022-12-28T09:42:03.411Z,101101.16
2022-12-28T09:44:33.530Z,101112.78
2022-12-28T09:47:17.239Z,101101.00
2022-12-28T09:49:55.944Z,101104.53
2022-12-28T09:52:34.511Z,101100.00
2022-12-28T09:55:11.321Z,101095.44
2022-12-28T09:57:44.776Z,101099.03
2022-12-28T10:00:17.655Z,101089.94
2022-12-28T10:02:49.428Z,101093.38
2022-12-28T10:05:16.259Z,101075.63
2022-12-28T10:07:43.390Z,101073.59
2022-12-28T10:10:17.070Z,101077.06
2022-12-28T10:12:44.532Z,101078.81
2022-12-28T10:15:15.496Z,101065.28
2022-12-28T10:17:43.069Z,101065.22
2022-12-28T10:20:18.427Z,101051.91
2022-12-28T10:22:50.357Z,101069.56
2022-12-28T10:25:26.183Z,101064.06
2022-12-28T10:27:53.512Z,101071.13
2022-12-28T10:30:27.935Z,101058.56
2022-12-28T10:33:02.463Z,101060.16
2022-12-28T10:35:48.383Z,101049.44
2022-12-28T10:38:36.482Z,101054.78
2022-12-28T10:41:12.003Z,101041.28
2022-12-28T10:43:45.736Z,101054.22
2022-12-28T10:46:18.519Z,101042.06
2022-12-28T10:48:55.825Z,101034.84
2022-12-28T10:51:24.700Z,101025.56
2022-12-28T10:53:55.290Z,101042.16
2022-12-28T10:56:27.632Z,101027.69
2022-12-28T10:59:15.404Z,101031.16
2022-12-28T11:01:42.954Z,101039.25
2022-12-28T11:04:18.565Z,101035.34
2022-12-28T11:06:56.910Z,101046.97
2022-12-28T11:09:26.652Z,101031.78
2022-12-28T11:11:56.962Z,101033.44
2022-12-28T11:14:29.438Z,101029.84
2022-12-28T11:16:55.978Z,101020.88
2022-12-28T11:19:24.678Z,101010.16
2022-12-28T11:21:51.695Z,101017.06
2022-12-28T11:24:19.659Z,101008.25
2022-12-28T11:26:49.308Z,101013.28
2022-12-28T11:29:17.867Z,101000.88
2022-12-28T11:32:16.411Z,100995.63
2022-12-28T11:34:42.888Z,100993.81
2022-12-28T11:37:15.870Z,100999.16
2022-12-28T11:39:45.465Z,100993.81
2022-12-28T11:42:41.491Z,101002.59
2022-12-28T11:45:16.805Z,100997.25
2022-12-28T11:47:43.461Z,100997.09
2022-12-28T11:50:34.606Z,100997.94
2022-12-28T11:53:03.427Z,100987.94
2022-12-28T11:55:44.356Z,100971.91
2022-12-28T11:58:35.600Z,100973.56
2022-12-28T12:01:04.999Z,100964.50
2022-12-28T12:03:59.360Z,100967.97
2022-12-28T12:06:48.586Z,100961.72
2022-12-28T12:09:20.913Z,100949.06
2022-12-28T12:11:55.308Z,100936.63
2022-12-28T12:14:26.806Z,100940.88
2022-12-28T12:17:07.679Z,100941.81
2022-12-28T12:19:38.837Z,100942.63
2022-12-28T12:22:28.960Z,100927.41
2022-12-28T12:25:18.005Z,100913.09
2022-12-28T12:27:57.097Z,100913.78
2022-12-28T12:30:24.477Z,100906.53
2022-12-28T12:32:58.301Z,100888.56
2022-12-28T12:35:27.073Z,100895.66
2022-12-28T12:38:24.273Z,100885.88
2022-12-28T12:41:12.662Z,100885.13
2022-12-28T12:44:03.588Z,100886.84
2022-12-28T12:46:53.700Z,100867.34
2022-12-28T12:49:54.720Z,100872.72
2022-12-28T12:52:29.653Z,100859.22
2022-12-28T12:55:18.264Z,100872.50
2022-12-28T12:58:03.099Z,100859.94
2022-12-28T13:00:49.570Z,100855.53
2022-12-28T13:03:34.116Z,100842.13
2022-12-28T13:06:03.634Z,100837.72
2022-12-28T13:08:39.948Z,100838.53
2022-12-28T13:11:10.544Z,100824.19
2022-12-28T13:13:39.967Z,100825.09
2022-12-28T13:16:15.240Z,100820.59
2022-12-28T13:18:53.158Z,100817.97
2022-12-28T13:21:22.067Z,100812.69
2022-12-28T13:23:49.451Z,100815.38
2022-12-28T13:26:16.728Z,100815.38
2022-12-28T13:28:51.452Z,100815.38
2022-12-28T13:31:23.756Z,100797.78
2022-12-28T13:34:04.608Z,100805.53
2022-12-28T13:36:31.410Z,100795.66
2022-12-28T13:39:25.526Z,100790.34
2022-12-28T13:41:55.092Z,100761.41
2022-12-28T13:44:28.545Z,100777.75
2022-12-28T13:47:07.061Z,100768.66
2022-12-28T13:49:40.025Z,100765.13
2022-12-28T13:52:10.333Z,100771.28
2022-12-28T13:54:38.347Z,100753.56
2022-12-28T13:57:36.663Z,100748.31
2022-12-28T13:59:56.028Z,100751.75
2022-12-28T14:02:24.456Z,100758.06
2022-12-28T14:04:53.980Z,100733.25
2022-12-28T14:07:24.655Z,100732.25
2022-12-28T14:09:52.477Z,100736.00
2022-12-28T14:12:20.005Z,100723.59
2022-12-28T14:14:47.821Z,100717.66
2022-12-28T14:17:15.036Z,100723.84
2022-12-28T14:19:42.936Z,100717.81
2022-12-28T14:22:28.011Z,100700.13
2022-12-28T14:25:13.240Z,100715.38
2022-12-28T14:28:03.717Z,100702.97
2022-12-28T14:30:40.470Z,100696.81
2022-12-28T14:33:24.602Z,100692.44
2022-12-28T14:36:03.228Z,100689.69
2022-12-28T14:38:58.279Z,100666.72
2022-12-28T14:41:34.595Z,100667.56
2022-12-28T14:44:03.268Z,100648.78
2022-12-28T14:46:41.222Z,100646.88
2022-12-28T14:49:29.985Z,100641.53
2022-12-28T14:51:57.330Z,100634.25
2022-12-28T14:54:26.145Z,100634.09
2022-12-28T14:56:58.783Z,100630.44
2022-12-28T14:59:30.588Z,100627.75
2022-12-28T15:01:57.287Z,100612.84
2022-12-28T15:04:39.069Z,100608.34
2022-12-28T15:07:08.199Z,100607.50
2022-12-28T15:09:35.153Z,100604.06
2022-12-28T15:12:10.279Z,100605.09
2022-12-28T15:14:37.139Z,100600.00
2022-12-28T15:17:03.919Z,100610.63
2022-12-28T15:19:30.408Z,100614.34
2022-12-28T15:21:56.886Z,100606.59
2022-12-28T15:24:26.239Z,100599.41
2022-12-28T15:26:55.223Z,100591.56
2022-12-28T15:29:39.560Z,100580.03
2022-12-28T15:32:08.355Z,100592.72
2022-12-28T15:34:34.729Z,100583.72
2022-12-28T15:37:01.145Z,100576.66
2022-12-28T15:39:27.810Z,100579.34
2022-12-28T15:41:55.751Z,100575.88
2022-12-28T15:44:22.383Z,100563.72
2022-12-28T15:46:49.975Z,100561.75
2022-12-28T15:49:17.932Z,100557.31
2022-12-28T15:51:48.707Z,100552.16
2022-12-28T15:54:15.327Z,100537.84
2022-12-28T15:56:42.434Z,100541.47
2022-12-28T15:59:14.293Z,100530.94
2022-12-28T16:01:43.352Z,100536.28
2022-12-28T16:04:10.425Z,100537.25
2022-12-28T16:06:43.630Z,100538.09
2022-12-28T16:09:11.630Z,100532.84
2022-12-28T16:11:38.096Z,100523.09
2022-12-28T16:14:06.056Z,100525.75
2022-12-28T16:16:36.279Z,100524.84
2022-12-28T16:19:03.385Z,100512.59
2022-12-28T16:21:30.054Z,100507.44
2022-12-28T16:23:59.278Z,100513.53
2022-12-28T16:26:26.004Z,100506.47
2022-12-28T16:28:52.726Z,100507.25
2022-12-28T16:31:29.825Z,100513.53
2022-12-28T16:34:01.483Z,100495.00
2022-12-28T16:36:28.159Z,100488.88
2022-12-28T16:38:55.029Z,100490.78
2022-12-28T16:41:21.848Z,100500.50
2022-12-28T16:43:50.045Z,100494.41
2022-12-28T16:46:19.804Z,100482.94
2022-12-28T16:48:46.274Z,100491.13
2022-12-28T16:51:12.690Z,100482.25
2022-12-28T16:53:39.103Z,100477.19
2022-12-28T16:56:06.833Z,100471.66
2022-12-28T16:58:33.812Z,100459.41
2022-12-28T17:01:07.121Z,100473.72
2022-12-28T17:03:34.317Z,100457.88
2022-12-28T17:06:00.977Z,100466.00
2022-12-28T17:08:27.479Z,100457.88
2022-12-28T17:10:53.948Z,100438.41
2022-12-28T17:13:20.468Z,100442.19
2022-12-28T17:15:46.982Z,100431.41
2022-12-28T17:18:13.739Z,100427.00
2022-12-28T17:20:41.193Z,100427.00
2022-12-28T17:23:08.341Z,100425.28
2022-12-28T17:25:35.577Z,100416.41
2022-12-28T17:28:02.030Z,100405.13
2022-12-28T17:30:28.674Z,100405.13
2022-12-28T17:32:55.051Z,100415.81
2022-12-28T17:35:22.322Z,100400.72
2022-12-28T17:37:48.986Z,100393.75
2022-12-28T17:40:15.463Z,100396.53
2022-12-28T17:42:41.828Z,100388.50
2022-12-28T17:45:11.755Z,100394.03
2022-12-28T17:47:38.772Z,100393.06
2022-12-28T17:50:06.404Z,100377.31
2022-12-28T17:52:32.843Z,100373.78
2022-12-28T17:54:59.254Z,100374.75
2022-12-28T17:57:25.708Z,100371.19
2022-12-28T17:59:52.068Z,100365.00
2022-12-28T18:02:18.619Z,100359.81
2022-12-28T18:04:45.340Z,100351.78
2022-12-28T18:07:11.752Z,100350.88
2022-12-28T18:09:38.206Z,100330.50
2022-12-28T18:12:04.831Z,100341.09
2022-12-28T18:14:31.193Z,100327.72
2022-12-28T18:16:57.682Z,100334.75
2022-12-28T18:19:24.117Z,100320.69
2022-12-28T18:21:50.530Z,100324.91
2022-12-28T18:24:20.633Z,100309.00
2022-12-28T18:26:48.062Z,100307.19
2022-12-28T18:29:14.580Z,100295.84
2022-12-28T18:31:41.067Z,100304.50
2022-12-28T18:34:07.517Z,100293.81
2022-12-28T18:36:34.119Z,100277.78
2022-12-28T18:39:01.876Z,100290.19
2022-12-28T18:41:33.720Z,100293.81
2022-12-28T18:44:02.530Z,100280.47
2022-12-28T18:46:28.999Z,100285.00
2022-12-28T18:48:56.555Z,100278.78
2022-12-28T18:51:23.255Z,100261.06
2022-12-28T18:53:50.741Z,100265.38
2022-12-28T18:56:19.752Z,100281.41
2022-12-28T18:58:54.385Z,100296.53
2022-12-28T19:04:10.831Z,100269.91
2022-12-28T19:06:38.276Z,100266.28
2022-12-28T19:09:07.010Z,100267.25
2022-12-28T19:11:33.715Z,100272.69
2022-12-28T19:14:05.838Z,100266.41
2022-12-28T19:16:32.636Z,100273.56
2022-12-28T19:18:59.993Z,100276.22
2022-12-28T19:21:37.685Z,100250.63
2022-12-28T19:24:12.407Z,100263.91
2022-12-28T19:26:38.949Z,100258.63
2022-12-28T19:29:07.128Z,100261.22
2022-12-28T19:31:34.024Z,100242.59
2022-12-28T19:34:00.509Z,100236.41
2022-12-28T19:36:27.140Z,100228.50
2022-12-28T19:38:55.006Z,100228.50
2022-12-28T19:41:24.902Z,100247.22
2022-12-28T19:43:51.827Z,100233.75
2022-12-28T19:46:21.595Z,100239.94
2022-12-28T19:48:48.182Z,100246.16
2022-12-28T19:51:15.051Z,100237.28
2022-12-28T19:53:41.924Z,100238.22
2022-12-28T19:56:12.051Z,100240.72
2022-12-28T19:58:39.419Z,100238.16
2022-12-28T20:01:08.250Z,100217.63
2022-12-28T20:03:35.282Z,100235.38
2022-12-28T20:06:06.231Z,100213.03
2022-12-28T20:08:33.663Z,100223.72
2022-12-28T20:11:00.144Z,100211.50
2022-12-28T20:13:26.517Z,100211.34
2022-12-28T20:15:53.136Z,100208.59
2022-12-28T20:18:19.605Z,100198.84
2022-12-28T20:21:18.021Z,100196.94
2022-12-28T20:23:35.155Z,100202.47
2022-12-28T20:26:01.597Z,100190.94
2022-12-28T20:28:28.070Z,100213.03
2022-12-28T20:31:00.283Z,100192.63
2022-12-28T20:33:26.805Z,100203.13
2022-12-28T20:36:02.050Z,100191.59
2022-12-28T20:38:31.618Z,100191.78
2022-12-28T20:41:47.682Z,100194.34
2022-12-28T20:44:20.695Z,100194.53
2022-12-28T20:46:47.169Z,100205.03
2022-12-28T20:49:13.752Z,100193.41
2022-12-28T20:51:42.231Z,100186.50
2022-12-28T20:54:10.372Z,100184.06
2022-12-28T20:56:38.515Z,100182.63
2022-12-28T20:59:05.613Z,100181.75
2022-12-28T21:01:32.097Z,100185.28
2022-12-28T21:03:58.745Z,100185.25
2022-12-28T21:06:25.226Z,100190.81
2022-12-28T21:08:51.729Z,100193.25
2022-12-28T21:11:18.942Z,100179.19
2022-12-28T21:13:45.663Z,100179.94
2022-12-28T21:16:14.355Z,100186.09
2022-12-28T21:18:41.699Z,100186.94
2022-12-28T21:21:14.923Z,100194.84
2022-12-28T21:23:41.907Z,100189.63
2022-12-28T21:26:12.603Z,100180.66
2022-12-28T21:28:39.009Z,100179.72
2022-12-28T21:31:06.181Z,100187.81
2022-12-28T21:33:33.712Z,100180.56
2022-12-28T21:36:10.585Z,100181.59
2022-12-28T21:38:38.530Z,100177.91
2022-12-28T21:41:10.826Z,100177.22
2022-12-28T21:43:37.751Z,100184.09
2022-12-28T21:46:07.671Z,100172.63
2022-12-28T21:48:35.946Z,100156.72
2022-12-28T21:51:34.314Z,100172.44
2022-12-28T21:54:04.266Z,100173.47
2022-12-28T21:56:31.718Z,100159.28
2022-12-28T21:58:58.869Z,100160.91
2022-12-28T22:01:45.514Z,100161.75
2022-12-28T22:04:32.792Z,100150.31
2022-12-28T22:06:59.714Z,100157.47
2022-12-28T22:09:45.588Z,100144.03
2022-12-28T22:12:32.402Z,100160.03
2022-12-28T22:15:17.659Z,100140.72
2022-12-28T22:17:44.541Z,100148.69
2022-12-28T22:20:13.957Z,100147.53
2022-12-28T22:22:41.668Z,100152.88
2022-12-28T22:25:09.354Z,100135.22
2022-12-28T22:27:35.748Z,100143.81
2022-12-28T22:30:02.257Z,100143.06
2022-12-28T22:32:28.661Z,100130.47
2022-12-28T22:34:55.065Z,100133.13
2022-12-28T22:37:21.657Z,100135.88
2022-12-28T22:39:48.076Z,100120.06
2022-12-28T22:42:15.608Z,100127.81
2022-12-28T22:44:42.091Z,100128.72
2022-12-28T22:47:08.478Z,100135.81
2022-12-28T22:49:35.011Z,100127.03
2022-12-28T22:52:01.432Z,100131.41
2022-12-28T22:54:27.817Z,100125.88
2022-12-28T22:56:54.174Z,100124.94
2022-12-28T22:59:20.588Z,100125.88
2022-12-28T23:01:48.288Z,100107.16
2022-12-28T23:04:15.722Z,100118.81
2022-12-28T23:06:42.228Z,100114.25
2022-12-28T23:09:08.726Z,100109.84
2022-12-28T23:11:38.326Z,100111.56
2022-12-28T23:14:49.510Z,100101.06
2022-12-28T23:17:17.166Z,100101.06
2022-12-28T23:20:03.747Z,100086.75
2022-12-28T23:22:50.539Z,100092.09
2022-12-28T23:25:39.436Z,100086.22
2022-12-28T23:28:09.843Z,100085.06
2022-12-28T23:30:38.231Z,100089.63
2022-12-28T23:33:05.049Z,100089.44
2022-12-28T23:35:32.299Z,100072.44
2022-12-28T23:37:58.885Z,100061.75
2022-12-28T23:40:25.548Z,100064.41
2022-12-28T23:42:54.011Z,100065.50
2022-12-28T23:45:20.532Z,100047.53
2022-12-28T23:47:47.150Z,100055.53
2022-12-28T23:50:15.672Z,100052.97
2022-12-28T23:52:42.157Z,100049.53
2022-12-28T23:55:09.992Z,100034.38
2022-12-28T23:57:36.659Z,100040.56
